Accueil
METAR-TAF:

METAR-TAF

Aéroports :

Fairbanks, Alaska, États-Unis

latitude: 64-48-14N, longitude: 147-52-34W, altitude: 132 m

Observation

Le bulletin a été fait il y a 24 minutes, à 06:53 UTC
Vent 4 kt de est
Température 24°C
Humidité 36%
Pression 1007 hPa
Visibilité: 16.1 km
Quelques nuages à une hauteur de 8000 ft
Quelques nuages à une hauteur de 20000 ft

METAR: PAFA 150653Z 10004KT 10SM FEW080 FEW200 24/08 A2975 RMK AO2 SLP076 T02390083

Heure: 23:17 (07:17 UTC)

Prévision

Le bulletin a été fait il y a 1 heure et 43 minutes, à 05:34 UTC
Prévision valable du 15 à 06 UTC au 16 à 12 UTC
Vent 6 kt de direction variable
Visibilité: 10 km
Quelques nuages à une hauteur de 6000 ft

TAF: PAFA 150534Z 1506/1612 VRB06KT P6SM FEW060

Observations et prévisions météorologiques de plus de 4000 aéroports (messages METAR et TAF).

Les stations disponibles sont représentées par des disques jaunes et rouges sur la carte.

Passer la souris dessus pour voir le nom de la station.

Cliquer dessus pour voir les observations et prévisions météorologiques.

Pour changer de carte: cliquez sur les boutons verts avec une croix noire pour zoomer, sur le bouton vert avec un tiret pour effectuer un zoom arrière, ou sur les flèches vertes pour les cartes adjacentes.


METAR-TAF: